sensor_id;sensor_type;location;lat;lon;timestamp;temperature;humidity
3281;DHT22;1652;51.318;6.202;2023-06-10T00:00:03;21.50;1.00
3281;DHT22;1652;51.318;6.202;2023-06-10T00:02:32;21.40;99.90
3281;DHT22;1652;51.318;6.202;2023-06-10T00:04:59;21.40;99.90
3281;DHT22;1652;51.318;6.202;2023-06-10T00:07:26;21.30;99.90
3281;DHT22;1652;51.318;6.202;2023-06-10T00:09:54;21.30;99.90
3281;DHT22;1652;51.318;6.202;2023-06-10T00:12:21;21.20;1.00
3281;DHT22;1652;51.318;6.202;2023-06-10T00:14:48;21.20;1.00
3281;DHT22;1652;51.318;6.202;2023-06-10T00:17:18;21.20;1.00
3281;DHT22;1652;51.318;6.202;2023-06-10T00:19:45;21.10;1.00
3281;DHT22;1652;51.318;6.202;2023-06-10T00:22:13;21.00;99.90
3281;DHT22;1652;51.318;6.202;2023-06-10T00:24:41;20.90;99.90
3281;DHT22;1652;51.318;6.202;2023-06-10T00:27:08;21.00;21.80
3281;DHT22;1652;51.318;6.202;2023-06-10T00:29:35;21.00;1.00
3281;DHT22;1652;51.318;6.202;2023-06-10T00:32:02;21.00;1.00
3281;DHT22;1652;51.318;6.202;2023-06-10T00:34:30;20.80;99.90
3281;DHT22;1652;51.318;6.202;2023-06-10T00:36:57;20.50;1.00
3281;DHT22;1652;51.318;6.202;2023-06-10T00:39:24;20.20;99.90
3281;DHT22;1652;51.318;6.202;2023-06-10T00:41:50;19.90;99.90
3281;DHT22;1652;51.318;6.202;2023-06-10T00:44:17;19.70;1.00
3281;DHT22;1652;51.318;6.202;2023-06-10T00:46:45;19.50;1.00
3281;DHT22;1652;51.318;6.202;2023-06-10T00:49:12;19.40;1.00
3281;DHT22;1652;51.318;6.202;2023-06-10T00:51:39;19.30;1.00
3281;DHT22;1652;51.318;6.202;2023-06-10T00:54:07;19.20;1.00
3281;DHT22;1652;51.318;6.202;2023-06-10T00:56:34;19.10;1.00
3281;DHT22;1652;51.318;6.202;2023-06-10T00:59:02;19.00;1.00
3281;DHT22;1652;51.318;6.202;2023-06-10T01:01:29;18.90;1.00
3281;DHT22;1652;51.318;6.202;2023-06-10T01:03:56;18.80;1.00
3281;DHT22;1652;51.318;6.202;2023-06-10T01:09:37;18.70;1.00
3281;DHT22;1652;51.318;6.202;2023-06-10T01:12:12;18.60;1.00
3281;DHT22;1652;51.318;6.202;2023-06-10T01:14:41;18.50;1.00
3281;DHT22;1652;51.318;6.202;2023-06-10T01:17:12;18.50;1.00
3281;DHT22;1652;51.318;6.202;2023-06-10T01:19:39;18.50;1.00
3281;DHT22;1652;51.318;6.202;2023-06-10T01:22:07;18.50;1.00
3281;DHT22;1652;51.318;6.202;2023-06-10T01:24:34;18.50;1.00
3281;DHT22;1652;51.318;6.202;2023-06-10T01:27:05;18.60;1.00
3281;DHT22;1652;51.318;6.202;2023-06-10T01:29:46;18.60;1.00
3281;DHT22;1652;51.318;6.202;2023-06-10T01:32:23;18.50;1.00
3281;DHT22;1652;51.318;6.202;2023-06-10T01:34:54;18.40;1.00
3281;DHT22;1652;51.318;6.202;2023-06-10T01:37:24;18.40;1.00
3281;DHT22;1652;51.318;6.202;2023-06-10T01:39:57;18.40;1.00
3281;DHT22;1652;51.318;6.202;2023-06-10T01:42:25;18.60;1.00
3281;DHT22;1652;51.318;6.202;2023-06-10T01:44:53;18.90;1.00
3281;DHT22;1652;51.318;6.202;2023-06-10T01:47:20;19.00;1.00
3281;DHT22;1652;51.318;6.202;2023-06-10T01:49:47;19.20;1.00
3281;DHT22;1652;51.318;6.202;2023-06-10T01:52:14;19.50;99.90
3281;DHT22;1652;51.318;6.202;2023-06-10T01:54:41;19.60;99.90
3281;DHT22;1652;51.318;6.202;2023-06-10T01:57:08;19.70;99.90
3281;DHT22;1652;51.318;6.202;2023-06-10T01:59:35;19.70;99.90
3281;DHT22;1652;51.318;6.202;2023-06-10T02:02:04;19.70;99.90
3281;DHT22;1652;51.318;6.202;2023-06-10T02:04:37;19.70;99.90
3281;DHT22;1652;51.318;6.202;2023-06-10T02:07:05;19.60;99.90
3281;DHT22;1652;51.318;6.202;2023-06-10T02:09:35;19.70;99.90
3281;DHT22;1652;51.318;6.202;2023-06-10T02:12:11;19.60;99.90
3281;DHT22;1652;51.318;6.202;2023-06-10T02:14:39;19.60;99.90
3281;DHT22;1652;51.318;6.202;2023-06-10T02:17:06;19.50;99.90
3281;DHT22;1652;51.318;6.202;2023-06-10T02:19:33;19.40;99.90
3281;DHT22;1652;51.318;6.202;2023-06-10T02:22:03;19.40;99.90
3281;DHT22;1652;51.318;6.202;2023-06-10T02:24:30;19.50;99.90
3281;DHT22;1652;51.318;6.202;2023-06-10T02:26:57;19.40;99.90
3281;DHT22;1652;51.318;6.202;2023-06-10T02:29:27;19.40;99.90
3281;DHT22;1652;51.318;6.202;2023-06-10T02:31:54;19.40;99.90
3281;DHT22;1652;51.318;6.202;2023-06-10T02:34:21;19.30;1.00
3281;DHT22;1652;51.318;6.202;2023-06-10T02:36:48;19.30;1.00
3281;DHT22;1652;51.318;6.202;2023-06-10T02:39:18;19.50;99.90
3281;DHT22;1652;51.318;6.202;2023-06-10T02:41:44;19.40;1.00
3281;DHT22;1652;51.318;6.202;2023-06-10T02:44:11;19.30;1.00
3281;DHT22;1652;51.318;6.202;2023-06-10T02:46:38;19.20;1.00
3281;DHT22;1652;51.318;6.202;2023-06-10T02:49:05;19.20;1.00
3281;DHT22;1652;51.318;6.202;2023-06-10T02:51:32;19.20;1.00
3281;DHT22;1652;51.318;6.202;2023-06-10T02:53:59;19.20;1.00
3281;DHT22;1652;51.318;6.202;2023-06-10T02:56:26;19.20;1.00
3281;DHT22;1652;51.318;6.202;2023-06-10T02:58:53;19.10;1.00
3281;DHT22;1652;51.318;6.202;2023-06-10T03:01:20;19.20;1.00
3281;DHT22;1652;51.318;6.202;2023-06-10T03:03:47;19.30;1.00
3281;DHT22;1652;51.318;6.202;2023-06-10T03:06:14;19.20;1.00
3281;DHT22;1652;51.318;6.202;2023-06-10T03:08:41;19.20;1.00
3281;DHT22;1652;51.318;6.202;2023-06-10T03:11:08;19.10;1.00
3281;DHT22;1652;51.318;6.202;2023-06-10T03:13:35;19.20;1.00
3281;DHT22;1652;51.318;6.202;2023-06-10T03:16:02;19.10;1.00
3281;DHT22;1652;51.318;6.202;2023-06-10T03:18:30;19.10;1.00
3281;DHT22;1652;51.318;6.202;2023-06-10T03:20:57;19.10;1.00
3281;DHT22;1652;51.318;6.202;2023-06-10T03:23:29;19.00;1.00
3281;DHT22;1652;51.318;6.202;2023-06-10T03:25:56;19.00;1.00
3281;DHT22;1652;51.318;6.202;2023-06-10T03:28:24;19.00;1.00
3281;DHT22;1652;51.318;6.202;2023-06-10T03:30:50;18.90;1.00
3281;DHT22;1652;51.318;6.202;2023-06-10T03:33:21;19.00;1.00
3281;DHT22;1652;51.318;6.202;2023-06-10T03:35:56;19.20;1.00
3281;DHT22;1652;51.318;6.202;2023-06-10T03:38:23;19.10;1.00
3281;DHT22;1652;51.318;6.202;2023-06-10T03:40:50;19.00;1.00
3281;DHT22;1652;51.318;6.202;2023-06-10T03:43:17;19.00;1.00
3281;DHT22;1652;51.318;6.202;2023-06-10T03:45:44;18.90;1.00
3281;DHT22;1652;51.318;6.202;2023-06-10T03:48:11;18.90;1.00
3281;DHT22;1652;51.318;6.202;2023-06-10T03:50:41;18.90;1.00
3281;DHT22;1652;51.318;6.202;2023-06-10T03:53:08;19.10;1.00
3281;DHT22;1652;51.318;6.202;2023-06-10T03:55:35;19.20;1.00
3281;DHT22;1652;51.318;6.202;2023-06-10T03:58:02;19.20;1.00
3281;DHT22;1652;51.318;6.202;2023-06-10T04:00:29;19.20;1.00
3281;DHT22;1652;51.318;6.202;2023-06-10T04:02:56;19.40;1.00
3281;DHT22;1652;51.318;6.202;2023-06-10T04:05:25;19.70;1.00
3281;DHT22;1652;51.318;6.202;2023-06-10T04:07:53;20.10;99.90
3281;DHT22;1652;51.318;6.202;2023-06-10T04:10:20;20.50;99.90
3281;DHT22;1652;51.318;6.202;2023-06-10T04:12:48;20.90;1.00
3281;DHT22;1652;51.318;6.202;2023-06-10T04:15:35;21.10;1.00
3281;DHT22;1652;51.318;6.202;2023-06-10T04:18:04;21.40;68.90
3281;DHT22;1652;51.318;6.202;2023-06-10T04:20:32;21.60;1.00
3281;DHT22;1652;51.318;6.202;2023-06-10T04:22:59;22.10;1.00
3281;DHT22;1652;51.318;6.202;2023-06-10T04:25:26;22.30;99.90
3281;DHT22;1652;51.318;6.202;2023-06-10T04:27:54;22.40;66.00
3281;DHT22;1652;51.318;6.202;2023-06-10T04:30:21;22.70;1.00
3281;DHT22;1652;51.318;6.202;2023-06-10T04:32:49;23.10;1.00
3281;DHT22;1652;51.318;6.202;2023-06-10T04:35:20;23.40;1.00
3281;DHT22;1652;51.318;6.202;2023-06-10T04:37:54;23.70;99.90
3281;DHT22;1652;51.318;6.202;2023-06-10T04:40:21;23.70;39.00
3281;DHT22;1652;51.318;6.202;2023-06-10T04:42:49;24.00;1.00
3281;DHT22;1652;51.318;6.202;2023-06-10T04:45:19;24.00;1.00
3281;DHT22;1652;51.318;6.202;2023-06-10T04:47:46;24.30;99.90
3281;DHT22;1652;51.318;6.202;2023-06-10T04:50:17;24.20;99.90
3281;DHT22;1652;51.318;6.202;2023-06-10T04:52:44;24.00;1.00
3281;DHT22;1652;51.318;6.202;2023-06-10T04:55:12;24.00;1.00
3281;DHT22;1652;51.318;6.202;2023-06-10T04:57:39;24.00;1.00
3281;DHT22;1652;51.318;6.202;2023-06-10T05:00:06;24.30;1.00
3281;DHT22;1652;51.318;6.202;2023-06-10T05:02:33;24.50;99.90
3281;DHT22;1652;51.318;6.202;2023-06-10T05:05:00;24.60;27.50
3281;DHT22;1652;51.318;6.202;2023-06-10T05:07:27;24.70;1.00
3281;DHT22;1652;51.318;6.202;2023-06-10T05:09:54;25.00;99.90
3281;DHT22;1652;51.318;6.202;2023-06-10T05:12:21;25.00;99.90
3281;DHT22;1652;51.318;6.202;2023-06-10T05:14:48;24.90;1.00
3281;DHT22;1652;51.318;6.202;2023-06-10T05:17:15;25.20;1.00
3281;DHT22;1652;51.318;6.202;2023-06-10T05:19:42;25.70;1.00
3281;DHT22;1652;51.318;6.202;2023-06-10T05:22:10;25.80;99.90
3281;DHT22;1652;51.318;6.202;2023-06-10T05:24:37;26.20;99.90
3281;DHT22;1652;51.318;6.202;2023-06-10T05:27:04;26.60;99.90
3281;DHT22;1652;51.318;6.202;2023-06-10T05:29:31;26.60;99.90
3281;DHT22;1652;51.318;6.202;2023-06-10T05:31:58;26.80;99.90
3281;DHT22;1652;51.318;6.202;2023-06-10T05:34:30;26.90;99.90
3281;DHT22;1652;51.318;6.202;2023-06-10T05:36:57;27.60;99.90
3281;DHT22;1652;51.318;6.202;2023-06-10T05:39:24;28.40;99.90
3281;DHT22;1652;51.318;6.202;2023-06-10T05:41:51;27.90;99.90
3281;DHT22;1652;51.318;6.202;2023-06-10T05:44:18;27.60;99.90
3281;DHT22;1652;51.318;6.202;2023-06-10T05:46:45;27.70;99.90
3281;DHT22;1652;51.318;6.202;2023-06-10T05:49:13;28.00;99.90
3281;DHT22;1652;51.318;6.202;2023-06-10T05:51:40;27.90;99.90
3281;DHT22;1652;51.318;6.202;2023-06-10T05:54:07;27.70;99.90
3281;DHT22;1652;51.318;6.202;2023-06-10T05:56:34;27.80;99.90
3281;DHT22;1652;51.318;6.202;2023-06-10T05:59:01;27.60;99.90
3281;DHT22;1652;51.318;6.202;2023-06-10T06:01:28;27.60;99.90
3281;DHT22;1652;51.318;6.202;2023-06-10T06:03:55;27.80;99.90
3281;DHT22;1652;51.318;6.202;2023-06-10T06:06:22;28.10;99.90
3281;DHT22;1652;51.318;6.202;2023-06-10T06:08:49;28.20;99.90
3281;DHT22;1652;51.318;6.202;2023-06-10T06:11:16;28.20;99.90
3281;DHT22;1652;51.318;6.202;2023-06-10T06:13:43;28.50;99.90
3281;DHT22;1652;51.318;6.202;2023-06-10T06:16:10;28.70;99.90
3281;DHT22;1652;51.318;6.202;2023-06-10T06:18:37;29.00;99.90
3281;DHT22;1652;51.318;6.202;2023-06-10T06:21:04;28.80;99.90
3281;DHT22;1652;51.318;6.202;2023-06-10T06:23:31;28.30;99.90
3281;DHT22;1652;51.318;6.202;2023-06-10T06:25:58;28.30;99.90
3281;DHT22;1652;51.318;6.202;2023-06-10T06:28:25;28.90;99.90
3281;DHT22;1652;51.318;6.202;2023-06-10T06:30:56;29.70;99.90
3281;DHT22;1652;51.318;6.202;2023-06-10T06:33:24;29.40;99.90
3281;DHT22;1652;51.318;6.202;2023-06-10T06:35:52;29.20;99.90
3281;DHT22;1652;51.318;6.202;2023-06-10T06:38:19;29.20;99.90
3281;DHT22;1652;51.318;6.202;2023-06-10T06:40:46;29.30;99.90
3281;DHT22;1652;51.318;6.202;2023-06-10T06:43:13;29.00;99.90
3281;DHT22;1652;51.318;6.202;2023-06-10T06:45:40;29.30;99.90
3281;DHT22;1652;51.318;6.202;2023-06-10T06:48:07;29.50;99.90
3281;DHT22;1652;51.318;6.202;2023-06-10T06:50:34;29.30;99.90
3281;DHT22;1652;51.318;6.202;2023-06-10T06:53:01;28.90;99.90
3281;DHT22;1652;51.318;6.202;2023-06-10T06:55:28;28.60;99.90
3281;DHT22;1652;51.318;6.202;2023-06-10T06:57:55;28.50;99.90
3281;DHT22;1652;51.318;6.202;2023-06-10T07:00:22;28.50;99.90
3281;DHT22;1652;51.318;6.202;2023-06-10T07:02:49;28.50;99.90
3281;DHT22;1652;51.318;6.202;2023-06-10T07:05:16;29.20;99.90
3281;DHT22;1652;51.318;6.202;2023-06-10T07:07:43;29.40;99.90
3281;DHT22;1652;51.318;6.202;2023-06-10T07:10:10;29.60;99.90
3281;DHT22;1652;51.318;6.202;2023-06-10T07:12:37;30.00;99.90
3281;DHT22;1652;51.318;6.202;2023-06-10T07:15:04;29.40;99.90
3281;DHT22;1652;51.318;6.202;2023-06-10T07:17:32;29.60;99.90
3281;DHT22;1652;51.318;6.202;2023-06-10T07:19:59;30.30;99.90
3281;DHT22;1652;51.318;6.202;2023-06-10T07:22:26;30.40;99.90
3281;DHT22;1652;51.318;6.202;2023-06-10T07:24:53;30.60;99.90
3281;DHT22;1652;51.318;6.202;2023-06-10T07:27:21;30.30;99.90
3281;DHT22;1652;51.318;6.202;2023-06-10T07:29:48;30.60;99.90
3281;DHT22;1652;51.318;6.202;2023-06-10T07:32:15;30.70;99.90
3281;DHT22;1652;51.318;6.202;2023-06-10T07:34:45;31.00;99.90
3281;DHT22;1652;51.318;6.202;2023-06-10T07:37:11;31.30;99.60
3281;DHT22;1652;51.318;6.202;2023-06-10T07:39:38;30.90;99.50
3281;DHT22;1652;51.318;6.202;2023-06-10T07:42:06;31.60;99.40
3281;DHT22;1652;51.318;6.202;2023-06-10T07:44:33;31.90;97.80
3281;DHT22;1652;51.318;6.202;2023-06-10T07:47:00;31.90;96.60
3281;DHT22;1652;51.318;6.202;2023-06-10T07:49:27;31.40;96.60
3281;DHT22;1652;51.318;6.202;2023-06-10T07:51:54;31.10;97.00
3281;DHT22;1652;51.318;6.202;2023-06-10T07:54:22;31.20;97.40
3281;DHT22;1652;51.318;6.202;2023-06-10T07:56:49;31.10;97.50
3281;DHT22;1652;51.318;6.202;2023-06-10T07:59:16;31.50;96.60
3281;DHT22;1652;51.318;6.202;2023-06-10T08:01:43;32.00;94.70
3281;DHT22;1652;51.318;6.202;2023-06-10T08:04:10;32.10;94.10
3281;DHT22;1652;51.318;6.202;2023-06-10T08:06:37;32.10;94.50
3281;DHT22;1652;51.318;6.202;2023-06-10T08:09:04;31.60;94.50
3281;DHT22;1652;51.318;6.202;2023-06-10T08:11:31;31.90;94.00
3281;DHT22;1652;51.318;6.202;2023-06-10T08:13:58;31.90;92.40
3281;DHT22;1652;51.318;6.202;2023-06-10T08:18:55;31.80;93.70
3281;DHT22;1652;51.318;6.202;2023-06-10T08:21:22;31.50;93.30
3281;DHT22;1652;51.318;6.202;2023-06-10T08:23:52;31.40;94.40
3281;DHT22;1652;51.318;6.202;2023-06-10T08:26:20;31.60;92.50
3281;DHT22;1652;51.318;6.202;2023-06-10T08:28:47;31.90;93.70
3281;DHT22;1652;51.318;6.202;2023-06-10T08:31:16;31.80;93.00
3281;DHT22;1652;51.318;6.202;2023-06-10T08:33:44;31.70;93.40
3281;DHT22;1652;51.318;6.202;2023-06-10T08:36:12;32.00;93.70
3281;DHT22;1652;51.318;6.202;2023-06-10T08:38:39;32.40;92.40
3281;DHT22;1652;51.318;6.202;2023-06-10T08:41:06;32.30;91.30
3281;DHT22;1652;51.318;6.202;2023-06-10T08:46:09;32.30;91.80
3281;DHT22;1652;51.318;6.202;2023-06-10T08:48:43;32.00;92.50
3281;DHT22;1652;51.318;6.202;2023-06-10T08:51:13;31.90;92.20
3281;DHT22;1652;51.318;6.202;2023-06-10T08:53:50;31.50;91.90
3281;DHT22;1652;51.318;6.202;2023-06-10T08:56:20;31.60;92.10
3281;DHT22;1652;51.318;6.202;2023-06-10T08:58:48;31.50;91.30
3281;DHT22;1652;51.318;6.202;2023-06-10T09:01:15;31.80;91.40
3281;DHT22;1652;51.318;6.202;2023-06-10T09:03:43;32.00;91.00
3281;DHT22;1652;51.318;6.202;2023-06-10T09:06:10;32.00;90.70
3281;DHT22;1652;51.318;6.202;2023-06-10T09:08:37;31.90;90.50
3281;DHT22;1652;51.318;6.202;2023-06-10T09:11:05;32.20;90.40
3281;DHT22;1652;51.318;6.202;2023-06-10T09:13:33;31.90;90.00
3281;DHT22;1652;51.318;6.202;2023-06-10T09:16:03;31.50;90.40
3281;DHT22;1652;51.318;6.202;2023-06-10T09:18:30;31.70;91.20
3281;DHT22;1652;51.318;6.202;2023-06-10T09:20:57;31.60;91.00
3281;DHT22;1652;51.318;6.202;2023-06-10T09:23:24;31.60;91.10
3281;DHT22;1652;51.318;6.202;2023-06-10T09:25:58;31.40;91.50
3281;DHT22;1652;51.318;6.202;2023-06-10T09:28:25;31.50;90.90
3281;DHT22;1652;51.318;6.202;2023-06-10T09:31:13;31.40;90.80
3281;DHT22;1652;51.318;6.202;2023-06-10T09:33:40;31.60;90.30
3281;DHT22;1652;51.318;6.202;2023-06-10T09:36:07;32.00;90.00
3281;DHT22;1652;51.318;6.202;2023-06-10T09:38:35;32.20;91.10
3281;DHT22;1652;51.318;6.202;2023-06-10T09:41:03;32.40;86.30
3281;DHT22;1652;51.318;6.202;2023-06-10T09:43:41;32.10;86.40
3281;DHT22;1652;51.318;6.202;2023-06-10T09:46:18;32.00;90.00
3281;DHT22;1652;51.318;6.202;2023-06-10T09:48:47;32.20;88.60
3281;DHT22;1652;51.318;6.202;2023-06-10T09:51:14;32.40;89.30
3281;DHT22;1652;51.318;6.202;2023-06-10T09:53:48;31.90;89.70
3281;DHT22;1652;51.318;6.202;2023-06-10T09:56:16;31.60;90.70
3281;DHT22;1652;51.318;6.202;2023-06-10T09:58:45;30.90;91.40
3281;DHT22;1652;51.318;6.202;2023-06-10T10:01:14;30.50;93.10
3281;DHT22;1652;51.318;6.202;2023-06-10T10:03:50;30.30;93.30
3281;DHT22;1652;51.318;6.202;2023-06-10T10:06:19;30.00;93.90
3281;DHT22;1652;51.318;6.202;2023-06-10T10:08:48;29.60;94.00
3281;DHT22;1652;51.318;6.202;2023-06-10T10:11:21;29.30;95.20
3281;DHT22;1652;51.318;6.202;2023-06-10T10:13:52;29.00;96.20
3281;DHT22;1652;51.318;6.202;2023-06-10T10:18:56;29.10;96.50
3281;DHT22;1652;51.318;6.202;2023-06-10T10:21:26;29.10;96.40
3281;DHT22;1652;51.318;6.202;2023-06-10T10:23:58;29.10;95.40
3281;DHT22;1652;51.318;6.202;2023-06-10T10:26:27;29.10;96.50
3281;DHT22;1652;51.318;6.202;2023-06-10T10:31:43;28.60;96.20
3281;DHT22;1652;51.318;6.202;2023-06-10T10:34:25;28.60;97.30
3281;DHT22;1652;51.318;6.202;2023-06-10T10:36:54;28.70;96.80
3281;DHT22;1652;51.318;6.202;2023-06-10T10:39:22;28.80;96.50
3281;DHT22;1652;51.318;6.202;2023-06-10T10:41:49;28.50;95.40
3281;DHT22;1652;51.318;6.202;2023-06-10T10:44:18;28.50;97.40
3281;DHT22;1652;51.318;6.202;2023-06-10T10:46:50;28.50;97.20
3281;DHT22;1652;51.318;6.202;2023-06-10T10:49:22;28.50;96.10
3281;DHT22;1652;51.318;6.202;2023-06-10T10:51:57;28.50;97.10
3281;DHT22;1652;51.318;6.202;2023-06-10T10:54:34;28.60;96.10
3281;DHT22;1652;51.318;6.202;2023-06-10T10:57:15;28.70;96.00
3281;DHT22;1652;51.318;6.202;2023-06-10T11:02:17;28.50;96.80
3281;DHT22;1652;51.318;6.202;2023-06-10T11:04:47;28.70;97.50
3281;DHT22;1652;51.318;6.202;2023-06-10T11:07:15;28.60;96.90
3281;DHT22;1652;51.318;6.202;2023-06-10T11:10:06;28.60;97.20
3281;DHT22;1652;51.318;6.202;2023-06-10T11:15:13;28.70;97.20
3281;DHT22;1652;51.318;6.202;2023-06-10T11:26:20;28.90;94.80
3281;DHT22;1652;51.318;6.202;2023-06-10T11:31:38;28.70;95.30
3281;DHT22;1652;51.318;6.202;2023-06-10T11:34:07;28.70;95.20
3281;DHT22;1652;51.318;6.202;2023-06-10T11:36:39;28.70;95.40
3281;DHT22;1652;51.318;6.202;2023-06-10T11:39:07;28.70;95.90
3281;DHT22;1652;51.318;6.202;2023-06-10T11:41:35;28.80;96.70
3281;DHT22;1652;51.318;6.202;2023-06-10T11:44:14;29.00;95.40
3281;DHT22;1652;51.318;6.202;2023-06-10T11:46:47;29.10;95.10
3281;DHT22;1652;51.318;6.202;2023-06-10T11:49:14;29.10;94.50
3281;DHT22;1652;51.318;6.202;2023-06-10T11:51:41;29.10;94.10
3281;DHT22;1652;51.318;6.202;2023-06-10T11:54:16;29.10;94.80
3281;DHT22;1652;51.318;6.202;2023-06-10T11:56:44;29.10;91.60
3281;DHT22;1652;51.318;6.202;2023-06-10T11:59:11;29.10;92.80
3281;DHT22;1652;51.318;6.202;2023-06-10T12:01:45;29.10;91.90
3281;DHT22;1652;51.318;6.202;2023-06-10T12:04:14;29.10;91.70
3281;DHT22;1652;51.318;6.202;2023-06-10T12:06:53;29.20;92.40
3281;DHT22;1652;51.318;6.202;2023-06-10T12:09:21;29.20;91.60
3281;DHT22;1652;51.318;6.202;2023-06-10T12:11:58;29.20;92.50
3281;DHT22;1652;51.318;6.202;2023-06-10T12:14:52;29.40;91.10
3281;DHT22;1652;51.318;6.202;2023-06-10T12:17:36;29.50;89.90
3281;DHT22;1652;51.318;6.202;2023-06-10T12:20:07;29.60;90.40
3281;DHT22;1652;51.318;6.202;2023-06-10T12:22:44;29.70;90.00
3281;DHT22;1652;51.318;6.202;2023-06-10T12:25:11;29.60;86.30
3281;DHT22;1652;51.318;6.202;2023-06-10T12:27:53;29.60;85.90
3281;DHT22;1652;51.318;6.202;2023-06-10T12:30:24;29.60;87.40
3281;DHT22;1652;51.318;6.202;2023-06-10T12:32:53;29.60;87.10
3281;DHT22;1652;51.318;6.202;2023-06-10T12:35:25;29.60;85.80
3281;DHT22;1652;51.318;6.202;2023-06-10T12:38:00;29.70;85.80
3281;DHT22;1652;51.318;6.202;2023-06-10T12:40:35;29.70;86.80
3281;DHT22;1652;51.318;6.202;2023-06-10T12:43:03;29.60;85.80
3281;DHT22;1652;51.318;6.202;2023-06-10T12:48:24;29.50;85.10
3281;DHT22;1652;51.318;6.202;2023-06-10T12:50:57;29.60;86.60
3281;DHT22;1652;51.318;6.202;2023-06-10T12:53:25;29.80;86.60
3281;DHT22;1652;51.318;6.202;2023-06-10T12:55:55;29.90;85.90
3281;DHT22;1652;51.318;6.202;2023-06-10T12:58:23;30.10;85.50
3281;DHT22;1652;51.318;6.202;2023-06-10T13:00:50;30.10;82.80
3281;DHT22;1652;51.318;6.202;2023-06-10T13:03:20;30.10;83.20
3281;DHT22;1652;51.318;6.202;2023-06-10T13:05:47;30.10;83.90
3281;DHT22;1652;51.318;6.202;2023-06-10T13:08:15;29.90;83.80
3281;DHT22;1652;51.318;6.202;2023-06-10T13:10:42;29.80;86.20
3281;DHT22;1652;51.318;6.202;2023-06-10T13:13:09;29.90;85.00
3281;DHT22;1652;51.318;6.202;2023-06-10T13:15:37;29.90;84.80
3281;DHT22;1652;51.318;6.202;2023-06-10T13:18:08;29.90;83.80
3281;DHT22;1652;51.318;6.202;2023-06-10T13:20:36;29.90;83.20
3281;DHT22;1652;51.318;6.202;2023-06-10T13:23:03;30.10;84.30
3281;DHT22;1652;51.318;6.202;2023-06-10T13:25:30;30.10;82.70
3281;DHT22;1652;51.318;6.202;2023-06-10T13:27:57;30.10;81.00
3281;DHT22;1652;51.318;6.202;2023-06-10T13:30:24;30.00;81.40
3281;DHT22;1652;51.318;6.202;2023-06-10T13:32:51;29.90;81.10
3281;DHT22;1652;51.318;6.202;2023-06-10T13:35:18;30.00;81.30
3281;DHT22;1652;51.318;6.202;2023-06-10T13:37:45;30.30;82.40
3281;DHT22;1652;51.318;6.202;2023-06-10T13:40:12;30.30;81.50
3281;DHT22;1652;51.318;6.202;2023-06-10T13:42:39;30.40;79.20
3281;DHT22;1652;51.318;6.202;2023-06-10T13:45:06;30.40;81.30
3281;DHT22;1652;51.318;6.202;2023-06-10T13:47:34;30.30;82.90
3281;DHT22;1652;51.318;6.202;2023-06-10T13:50:01;30.20;83.10
3281;DHT22;1652;51.318;6.202;2023-06-10T13:52:28;30.20;84.10
3281;DHT22;1652;51.318;6.202;2023-06-10T13:54:55;29.90;82.40
3281;DHT22;1652;51.318;6.202;2023-06-10T13:57:22;29.80;83.10
3281;DHT22;1652;51.318;6.202;2023-06-10T13:59:49;29.70;83.30
3281;DHT22;1652;51.318;6.202;2023-06-10T14:02:16;29.70;84.20
3281;DHT22;1652;51.318;6.202;2023-06-10T14:04:43;29.80;87.00
3281;DHT22;1652;51.318;6.202;2023-06-10T14:07:10;30.00;87.00
3281;DHT22;1652;51.318;6.202;2023-06-10T14:09:37;30.30;87.50
3281;DHT22;1652;51.318;6.202;2023-06-10T14:12:04;30.40;89.30
3281;DHT22;1652;51.318;6.202;2023-06-10T14:14:32;30.40;87.00
3281;DHT22;1652;51.318;6.202;2023-06-10T14:16:59;30.50;86.80
3281;DHT22;1652;51.318;6.202;2023-06-10T14:19:27;30.30;83.80
3281;DHT22;1652;51.318;6.202;2023-06-10T14:21:53;30.20;85.30
3281;DHT22;1652;51.318;6.202;2023-06-10T14:24:22;30.20;89.10
3281;DHT22;1652;51.318;6.202;2023-06-10T14:26:50;30.20;84.60
3281;DHT22;1652;51.318;6.202;2023-06-10T14:29:17;30.10;82.10
3281;DHT22;1652;51.318;6.202;2023-06-10T14:31:46;29.90;83.00
3281;DHT22;1652;51.318;6.202;2023-06-10T14:34:15;29.90;82.80
3281;DHT22;1652;51.318;6.202;2023-06-10T14:36:42;30.00;85.40
3281;DHT22;1652;51.318;6.202;2023-06-10T14:39:12;30.00;83.90
3281;DHT22;1652;51.318;6.202;2023-06-10T14:41:43;30.20;82.20
3281;DHT22;1652;51.318;6.202;2023-06-10T14:44:10;30.30;81.00
3281;DHT22;1652;51.318;6.202;2023-06-10T14:46:37;30.30;82.30
3281;DHT22;1652;51.318;6.202;2023-06-10T14:49:04;30.30;82.90
3281;DHT22;1652;51.318;6.202;2023-06-10T14:51:31;30.20;81.70
3281;DHT22;1652;51.318;6.202;2023-06-10T14:54:02;30.20;81.50
3281;DHT22;1652;51.318;6.202;2023-06-10T14:56:29;30.20;82.40
3281;DHT22;1652;51.318;6.202;2023-06-10T14:58:56;30.30;83.20
3281;DHT22;1652;51.318;6.202;2023-06-10T15:01:23;30.30;82.30
3281;DHT22;1652;51.318;6.202;2023-06-10T15:03:50;30.40;83.70
3281;DHT22;1652;51.318;6.202;2023-06-10T15:06:17;30.40;83.40
3281;DHT22;1652;51.318;6.202;2023-06-10T15:08:47;30.40;79.90
3281;DHT22;1652;51.318;6.202;2023-06-10T15:11:17;30.50;81.80
3281;DHT22;1652;51.318;6.202;2023-06-10T15:13:44;30.50;81.10
3281;DHT22;1652;51.318;6.202;2023-06-10T15:18:53;30.50;80.30
3281;DHT22;1652;51.318;6.202;2023-06-10T15:21:20;30.50;80.90
3281;DHT22;1652;51.318;6.202;2023-06-10T15:23:47;30.50;82.30
3281;DHT22;1652;51.318;6.202;2023-06-10T15:26:14;30.50;84.10
3281;DHT22;1652;51.318;6.202;2023-06-10T15:28:41;30.70;82.60
3281;DHT22;1652;51.318;6.202;2023-06-10T15:31:08;30.70;81.40
3281;DHT22;1652;51.318;6.202;2023-06-10T15:33:35;30.60;81.30
3281;DHT22;1652;51.318;6.202;2023-06-10T15:36:02;30.70;82.40
3281;DHT22;1652;51.318;6.202;2023-06-10T15:38:31;30.70;82.50
3281;DHT22;1652;51.318;6.202;2023-06-10T15:40:58;30.80;81.60
3281;DHT22;1652;51.318;6.202;2023-06-10T15:43:25;30.70;79.00
3281;DHT22;1652;51.318;6.202;2023-06-10T15:45:52;30.70;81.50
3281;DHT22;1652;51.318;6.202;2023-06-10T15:48:19;30.90;82.30
3281;DHT22;1652;51.318;6.202;2023-06-10T15:50:46;30.90;81.20
3281;DHT22;1652;51.318;6.202;2023-06-10T15:53:13;30.70;82.80
3281;DHT22;1652;51.318;6.202;2023-06-10T15:55:40;30.50;85.50
3281;DHT22;1652;51.318;6.202;2023-06-10T15:58:07;30.40;83.20
3281;DHT22;1652;51.318;6.202;2023-06-10T16:00:33;30.20;85.70
3281;DHT22;1652;51.318;6.202;2023-06-10T16:03:00;30.10;87.60
3281;DHT22;1652;51.318;6.202;2023-06-10T16:05:28;30.00;85.50
3281;DHT22;1652;51.318;6.202;2023-06-10T16:07:55;29.90;87.30
3281;DHT22;1652;51.318;6.202;2023-06-10T16:10:24;29.90;86.50
3281;DHT22;1652;51.318;6.202;2023-06-10T16:12:52;29.80;87.50
3281;DHT22;1652;51.318;6.202;2023-06-10T16:15:19;29.70;87.40
3281;DHT22;1652;51.318;6.202;2023-06-10T16:17:46;29.80;89.50
3281;DHT22;1652;51.318;6.202;2023-06-10T16:20:13;29.70;90.00
3281;DHT22;1652;51.318;6.202;2023-06-10T16:22:41;29.70;90.40
3281;DHT22;1652;51.318;6.202;2023-06-10T16:25:08;29.60;89.50
3281;DHT22;1652;51.318;6.202;2023-06-10T16:27:35;29.50;90.60
3281;DHT22;1652;51.318;6.202;2023-06-10T16:30:02;29.50;90.90
3281;DHT22;1652;51.318;6.202;2023-06-10T16:32:29;29.50;91.30
3281;DHT22;1652;51.318;6.202;2023-06-10T16:34:56;29.30;91.60
3281;DHT22;1652;51.318;6.202;2023-06-10T16:37:23;29.30;92.20
3281;DHT22;1652;51.318;6.202;2023-06-10T16:39:50;29.20;91.80
3281;DHT22;1652;51.318;6.202;2023-06-10T16:42:17;29.10;92.30
3281;DHT22;1652;51.318;6.202;2023-06-10T16:44:45;29.30;92.80
3281;DHT22;1652;51.318;6.202;2023-06-10T16:47:11;29.30;93.20